TimeMST,TemperatureF,Dew PointF,Humidity,Sea Level PressureIn,VisibilityMPH,Wind Direction,Wind SpeedMPH,Gust SpeedMPH,PrecipitationIn,Events,Conditions,WindDirDegrees,DateUTC
12:55 AM,55.0,37.0,51,29.97,10.0,Calm,Calm,-,N/A,,Clear,0,2012-11-22 07:55:00
1:55 AM,55.0,36.0,49,29.98,10.0,Calm,Calm,-,N/A,,Partly Cloudy,0,2012-11-22 08:55:00
2:55 AM,55.9,37.9,51,29.99,10.0,Calm,Calm,-,N/A,,Partly Cloudy,0,2012-11-22 09:55:00
3:55 AM,54.0,37.0,53,29.98,10.0,Calm,Calm,-,N/A,,Partly Cloudy,0,2012-11-22 10:55:00
4:55 AM,54.0,37.0,53,29.98,10.0,NE,3.5,-,N/A,,Partly Cloudy,50,2012-11-22 11:55:00
5:55 AM,53.1,36.0,52,29.99,10.0,NE,3.5,-,N/A,,Partly Cloudy,40,2012-11-22 12:55:00
6:55 AM,51.1,36.0,56,30.02,10.0,North,4.6,-,N/A,,Partly Cloudy,10,2012-11-22 13:55:00
7:55 AM,55.0,34.0,45,30.04,10.0,North,4.6,-,N/A,,Partly Cloudy,10,2012-11-22 14:55:00
8:55 AM,59.0,35.1,41,30.07,10.0,NE,8.1,-,N/A,,Partly Cloudy,50,2012-11-22 15:55:00
9:55 AM,64.9,36.0,34,30.08,10.0,NNE,8.1,-,N/A,,Partly Cloudy,30,2012-11-22 16:55:00
10:55 AM,70.0,36.0,29,30.09,10.0,NNE,9.2,-,N/A,,Partly Cloudy,30,2012-11-22 17:55:00
11:55 AM,75.0,36.0,24,30.07,10.0,NNE,8.1,-,N/A,,Partly Cloudy,20,2012-11-22 18:55:00
12:55 PM,77.0,35.1,22,30.05,10.0,NNE,9.2,-,N/A,,Partly Cloudy,30,2012-11-22 19:55:00
1:55 PM,80.1,35.1,20,30.03,10.0,North,6.9,-,N/A,,Partly Cloudy,360,2012-11-22 20:55:00
2:55 PM,81.0,33.1,18,30.01,10.0,Calm,Calm,-,N/A,,Partly Cloudy,0,2012-11-22 21:55:00
3:55 PM,81.0,33.1,18,30.01,10.0,NNE,4.6,-,N/A,,Partly Cloudy,20,2012-11-22 22:55:00
4:55 PM,79.0,32.0,18,30.02,10.0,NNW,5.8,-,N/A,,Partly Cloudy,340,2012-11-22 23:55:00
5:55 PM,75.0,33.1,22,30.03,10.0,North,6.9,-,N/A,,Clear,350,2012-11-23 00:55:00
6:55 PM,72.0,34.0,25,30.04,10.0,NNW,4.6,-,N/A,,Clear,340,2012-11-23 01:55:00
7:55 PM,72.0,34.0,25,30.05,10.0,NNW,4.6,-,N/A,,Clear,330,2012-11-23 02:55:00
8:55 PM,64.9,36.0,34,30.07,10.0,Calm,Calm,-,N/A,,Clear,0,2012-11-23 03:55:00
9:55 PM,63.0,35.1,35,30.09,10.0,Calm,Calm,-,N/A,,Clear,0,2012-11-23 04:55:00
10:55 PM,62.1,37.9,41,30.09,10.0,Calm,Calm,-,N/A,,Clear,0,2012-11-23 05:55:00
11:55 PM,60.1,39.0,46,30.09,10.0,Calm,Calm,-,N/A,,Clear,0,2012-11-23 06:55:00